createdAt,value
2022-10-29T00:00:13.983Z,6.60
2022-10-29T00:01:14.052Z,6.00
2022-10-29T00:02:13.974Z,6.80
2022-10-29T00:03:14.038Z,6.50
2022-10-29T00:04:13.939Z,6.50
2022-10-29T00:05:13.943Z,6.30
2022-10-29T00:06:13.915Z,6.70
2022-10-29T00:07:13.914Z,6.90
2022-10-29T00:08:13.898Z,7.10
2022-10-29T00:09:13.877Z,6.20
2022-10-29T00:10:13.871Z,7.00
2022-10-29T00:11:13.870Z,6.50
2022-10-29T00:12:13.864Z,6.30
2022-10-29T00:13:13.832Z,6.60
2022-10-29T00:14:13.861Z,5.90
2022-10-29T00:15:13.826Z,6.70
2022-10-29T00:16:13.822Z,6.60
2022-10-29T00:17:13.789Z,6.80
2022-10-29T00:18:13.782Z,7.30
2022-10-29T00:19:13.785Z,7.20
2022-10-29T00:20:13.764Z,7.20
2022-10-29T00:21:13.765Z,7.50
2022-10-29T00:22:13.745Z,6.80
2022-10-29T00:23:13.747Z,6.90
2022-10-29T00:24:13.717Z,6.60
2022-10-29T00:25:13.706Z,7.50
2022-10-29T00:26:13.706Z,6.80
2022-10-29T00:27:13.714Z,7.20
2022-10-29T00:28:13.668Z,7.20
2022-10-29T00:29:13.674Z,7.20
2022-10-29T00:30:13.646Z,7.30
2022-10-29T00:31:13.632Z,6.60
2022-10-29T00:32:13.731Z,7.20
2022-10-29T00:33:13.672Z,7.10
2022-10-29T00:34:13.607Z,7.40
2022-10-29T00:35:13.585Z,7.30
2022-10-29T00:36:13.591Z,7.50
2022-10-29T00:37:13.603Z,7.20
2022-10-29T00:38:13.558Z,7.50
2022-10-29T00:39:13.555Z,6.90
2022-10-29T00:40:13.557Z,7.40
2022-10-29T00:41:13.518Z,8.00
2022-10-29T00:42:13.547Z,7.90
2022-10-29T00:43:13.509Z,7.40
2022-10-29T00:44:13.522Z,7.20
2022-10-29T00:45:21.023Z,7.50
2022-10-29T00:46:13.476Z,7.30
2022-10-29T00:47:13.482Z,7.80
2022-10-29T00:48:13.445Z,7.00
2022-10-29T00:49:13.472Z,7.60
2022-10-29T00:50:13.466Z,6.90
2022-10-29T00:51:13.432Z,7.50
2022-10-29T00:52:13.406Z,7.50
2022-10-29T00:53:13.417Z,7.00
2022-10-29T00:54:13.398Z,7.50
2022-10-29T00:55:13.363Z,8.30
2022-10-29T00:56:13.371Z,7.20
2022-10-29T00:57:13.363Z,7.80
2022-10-29T00:58:13.369Z,7.10
2022-10-29T00:59:13.368Z,7.50
2022-10-29T01:00:13.320Z,7.30
2022-10-29T01:01:13.392Z,7.60
2022-10-29T01:02:13.489Z,7.40
2022-10-29T01:03:13.413Z,7.40
2022-10-29T01:04:13.283Z,7.60
2022-10-29T01:05:13.250Z,7.40
2022-10-29T01:06:13.274Z,7.30
2022-10-29T01:07:13.245Z,7.30
2022-10-29T01:08:13.242Z,8.10
2022-10-29T01:09:13.233Z,7.70
2022-10-29T01:10:13.203Z,7.20
2022-10-29T01:11:13.205Z,7.90
2022-10-29T01:12:13.176Z,8.10
2022-10-29T01:13:13.185Z,7.60
2022-10-29T01:14:13.173Z,7.30
2022-10-29T01:15:13.144Z,8.40
2022-10-29T01:16:13.132Z,7.20
2022-10-29T01:17:13.125Z,7.30
2022-10-29T01:18:13.129Z,7.90
2022-10-29T01:19:13.193Z,7.50
2022-10-29T01:20:13.089Z,9.00
2022-10-29T01:21:13.089Z,8.30
2022-10-29T01:22:13.065Z,8.50
2022-10-29T01:23:13.086Z,8.00
2022-10-29T01:24:13.049Z,7.90
2022-10-29T01:25:13.046Z,8.10
2022-10-29T01:26:13.045Z,7.30
2022-10-29T01:27:13.013Z,8.40
2022-10-29T01:28:13.011Z,8.10
2022-10-29T01:29:12.983Z,7.70
2022-10-29T01:30:12.976Z,8.10
2022-10-29T01:31:12.974Z,7.60
2022-10-29T01:32:12.969Z,7.50
2022-10-29T01:33:12.938Z,8.00
2022-10-29T01:34:12.953Z,7.70
2022-10-29T01:35:12.929Z,7.70
2022-10-29T01:36:12.932Z,7.40
2022-10-29T01:37:12.895Z,7.60
2022-10-29T01:38:12.896Z,7.50
2022-10-29T01:39:12.869Z,7.70
2022-10-29T01:40:12.866Z,8.10
2022-10-29T01:41:12.881Z,7.90
2022-10-29T01:42:12.853Z,7.30
2022-10-29T01:43:12.904Z,7.30
2022-10-29T01:44:12.848Z,7.50
2022-10-29T01:45:12.815Z,7.50
2022-10-29T01:46:12.812Z,7.80
2022-10-29T01:47:12.785Z,7.80
2022-10-29T01:48:12.775Z,7.80
2022-10-29T01:49:12.773Z,7.70
2022-10-29T01:50:12.787Z,8.10
2022-10-29T01:51:12.751Z,7.50
2022-10-29T01:52:12.736Z,7.60
2022-10-29T01:53:12.717Z,7.40
2022-10-29T01:54:12.730Z,8.50
2022-10-29T01:55:12.705Z,7.80
2022-10-29T01:56:12.698Z,7.40
2022-10-29T01:57:12.689Z,8.10
2022-10-29T01:58:12.746Z,7.60
2022-10-29T01:59:22.936Z,7.70
2022-10-29T02:00:13.651Z,8.40
2022-10-29T02:01:12.780Z,8.00
2022-10-29T02:02:12.653Z,8.20
2022-10-29T02:03:12.621Z,8.00
2022-10-29T02:04:12.623Z,8.00
2022-10-29T02:05:12.594Z,8.20
2022-10-29T02:06:12.580Z,7.60
2022-10-29T02:07:12.560Z,8.30
2022-10-29T02:08:12.553Z,7.90
2022-10-29T02:09:12.547Z,8.00
2022-10-29T02:10:12.550Z,8.30
2022-10-29T02:11:12.513Z,7.70
2022-10-29T02:12:12.521Z,8.70
2022-10-29T02:13:13.421Z,7.90
2022-10-29T02:14:12.482Z,8.60
2022-10-29T02:15:12.470Z,8.60
2022-10-29T02:16:12.476Z,7.90
2022-10-29T02:17:12.465Z,8.60
2022-10-29T02:18:12.438Z,8.90
2022-10-29T02:19:12.428Z,8.90
2022-10-29T02:20:12.432Z,8.80
2022-10-29T02:21:12.400Z,10.00
2022-10-29T02:22:12.392Z,10.50
2022-10-29T02:23:12.388Z,9.90
2022-10-29T02:24:12.382Z,9.80
2022-10-29T02:25:12.470Z,10.90
2022-10-29T02:26:12.362Z,11.80
2022-10-29T02:27:12.330Z,11.10
2022-10-29T02:28:12.364Z,10.20
2022-10-29T02:29:12.342Z,9.90
2022-10-29T02:30:12.324Z,9.40
2022-10-29T02:31:12.287Z,10.20
2022-10-29T02:32:12.306Z,11.10
2022-10-29T02:33:12.277Z,8.90
2022-10-29T02:34:12.269Z,8.50
2022-10-29T02:35:12.243Z,8.80
2022-10-29T02:36:12.266Z,8.40
2022-10-29T02:37:12.230Z,8.20
2022-10-29T02:38:12.214Z,7.70
2022-10-29T22:45:13.828Z,6.30
2022-10-29T22:46:13.795Z,5.50
2022-10-29T22:47:13.792Z,6.20
2022-10-29T22:48:13.773Z,6.10
2022-10-29T22:49:13.752Z,6.20
2022-10-29T22:50:13.739Z,5.80
2022-10-29T22:51:13.740Z,6.50
2022-10-29T22:52:13.741Z,6.30
2022-10-29T22:53:13.711Z,6.00
2022-10-29T22:54:13.695Z,6.60
2022-10-29T22:55:13.694Z,6.90
2022-10-29T22:56:13.701Z,6.30
2022-10-29T22:57:13.688Z,6.20
2022-10-29T22:58:13.663Z,6.60
2022-10-29T22:59:13.651Z,6.20
2022-10-29T23:00:13.658Z,6.10
2022-10-29T23:01:13.815Z,6.40
2022-10-29T23:02:13.681Z,6.20
2022-10-29T23:03:13.619Z,6.20
2022-10-29T23:04:13.891Z,6.60
2022-10-29T23:05:13.581Z,6.00
2022-10-29T23:06:13.582Z,6.20
2022-10-29T23:07:13.555Z,6.60
2022-10-29T23:08:13.542Z,6.80
2022-10-29T23:09:13.533Z,6.30
2022-10-29T23:10:13.517Z,6.60
2022-10-29T23:11:13.536Z,6.40
2022-10-29T23:12:13.503Z,6.80
2022-10-29T23:13:13.500Z,6.30
2022-10-29T23:14:13.509Z,6.30
2022-10-29T23:15:13.468Z,6.60
2022-10-29T23:16:13.462Z,6.10
2022-10-29T23:17:20.270Z,6.10
2022-10-29T23:18:13.431Z,7.00
2022-10-29T23:19:13.784Z,6.40
2022-10-29T23:20:13.411Z,6.20
2022-10-29T23:21:13.396Z,6.20
2022-10-29T23:23:13.401Z,6.10
2022-10-29T23:24:13.380Z,6.20
2022-10-29T23:25:13.351Z,6.10
2022-10-29T23:26:13.358Z,6.10
2022-10-29T23:27:13.347Z,6.30
2022-10-29T23:28:13.341Z,6.10
2022-10-29T23:29:13.320Z,6.10
2022-10-29T23:30:13.306Z,6.50
2022-10-29T23:31:13.286Z,6.30
2022-10-29T23:32:13.280Z,5.90
2022-10-29T23:33:13.280Z,5.90
2022-10-29T23:34:13.272Z,6.40
2022-10-29T23:35:13.241Z,6.50
2022-10-29T23:36:13.278Z,6.30
2022-10-29T23:37:13.241Z,6.30
2022-10-29T23:38:13.227Z,6.80
2022-10-29T23:39:13.234Z,6.50
2022-10-29T23:40:13.205Z,6.30
2022-10-29T23:41:13.196Z,6.40
2022-10-29T23:42:13.168Z,6.70
2022-10-29T23:43:13.151Z,6.80
2022-10-29T23:44:13.159Z,6.70
2022-10-29T23:45:13.128Z,6.50
2022-10-29T23:46:13.121Z,6.70
2022-10-29T23:47:13.114Z,6.80
2022-10-29T23:48:13.119Z,6.40
2022-10-29T23:49:13.102Z,6.60
2022-10-29T23:50:13.077Z,6.70
2022-10-29T23:51:13.062Z,6.10
2022-10-29T23:52:13.073Z,6.30
2022-10-29T23:53:13.044Z,6.00
2022-10-29T23:54:13.032Z,6.40
2022-10-29T23:55:13.033Z,6.10
2022-10-29T23:56:13.043Z,6.60
2022-10-29T23:57:12.994Z,6.80
2022-10-29T23:58:13.003Z,6.50
2022-10-29T23:59:12.972Z,6.10
